createdAt,value
2022-08-18T00:00:20.084Z,22.50
2022-08-18T00:02:28.804Z,22.25
2022-08-18T00:04:45.263Z,21.93
2022-08-18T00:06:52.931Z,21.91
2022-08-18T00:08:58.669Z,22.16
2022-08-18T00:11:02.172Z,22.26
2022-08-18T00:13:05.642Z,22.03
2022-08-18T00:15:11.466Z,22.34
2022-08-18T00:17:15.515Z,22.23
2022-08-18T00:19:18.927Z,22.16
2022-08-18T00:21:22.420Z,22.17
2022-08-18T00:23:25.860Z,22.17
2022-08-18T00:25:30.709Z,22.21
2022-08-18T00:27:34.343Z,22.29
2022-08-18T00:29:37.714Z,22.32
2022-08-18T00:31:41.150Z,22.35
2022-08-18T00:33:44.774Z,22.36
2022-08-18T00:35:48.363Z,22.38
2022-08-18T00:37:51.844Z,22.40
2022-08-18T00:39:55.625Z,22.35
2022-08-18T00:42:00.453Z,22.14
2022-08-18T00:44:04.763Z,22.27
2022-08-18T00:46:10.030Z,22.40
2022-08-18T00:48:15.257Z,22.40
2022-08-18T00:50:22.653Z,22.43
2022-08-18T00:52:26.787Z,22.45
2022-08-18T00:54:33.191Z,22.31
2022-08-18T00:56:40.740Z,22.29
2022-08-18T00:58:50.515Z,22.25
2022-08-18T01:00:54.868Z,22.22
2022-08-18T01:03:03.899Z,22.14
2022-08-18T01:05:14.599Z,22.16
2022-08-18T01:07:23.089Z,22.09
2022-08-18T01:09:26.611Z,22.03
2022-08-18T01:11:30.201Z,22.01
2022-08-18T01:13:36.342Z,22.01
2022-08-18T01:15:41.280Z,21.99
2022-08-18T01:18:02.776Z,22.01
2022-08-18T01:20:26.082Z,22.06
2022-08-18T01:22:37.873Z,22.04
2022-08-18T01:25:00.326Z,22.00
2022-08-18T01:27:03.702Z,21.97
2022-08-18T01:29:14.171Z,21.94
2022-08-18T01:31:37.926Z,21.96
2022-08-18T01:33:44.689Z,21.96
2022-08-18T01:35:50.263Z,21.98
2022-08-18T01:37:54.412Z,21.86
2022-08-18T01:41:25.163Z,21.95
2022-08-18T01:42:23.074Z,21.84
2022-08-18T01:44:27.098Z,21.64
2022-08-18T01:46:33.626Z,21.67
2022-08-18T01:48:38.444Z,21.64
2022-08-18T01:50:44.112Z,21.68
2022-08-18T01:52:48.485Z,21.69
2022-08-18T01:54:53.224Z,21.61
2022-08-18T01:56:58.190Z,21.35
2022-08-18T01:59:01.564Z,21.12
2022-08-18T02:01:07.231Z,21.18
2022-08-18T02:03:13.968Z,21.25
2022-08-18T02:05:21.472Z,21.28
2022-08-18T02:07:35.945Z,21.27
2022-08-18T02:09:41.941Z,21.28
2022-08-18T02:11:45.317Z,21.29
2022-08-18T02:13:50.141Z,21.18
2022-08-18T02:15:53.615Z,21.21
2022-08-18T02:17:57.007Z,21.22
2022-08-18T02:20:00.453Z,21.27
2022-08-18T02:22:05.015Z,21.37
2022-08-18T02:26:13.826Z,21.37
2022-08-18T02:28:17.704Z,21.27
2022-08-18T02:30:22.671Z,21.41
2022-08-18T02:34:32.786Z,21.35
2022-08-18T02:36:36.223Z,21.37
2022-08-18T02:38:40.403Z,21.41
2022-08-18T02:40:46.547Z,21.20
2022-08-18T02:42:50.037Z,21.23
2022-08-18T02:44:53.372Z,21.28
2022-08-18T02:46:58.191Z,21.29
2022-08-18T02:49:01.896Z,21.22
2022-08-18T02:51:07.049Z,21.27
2022-08-18T02:53:10.613Z,21.27
2022-08-18T02:55:14.641Z,21.23
2022-08-18T02:57:18.156Z,21.18
2022-08-18T02:59:25.268Z,21.24
2022-08-18T03:01:31.621Z,21.21
2022-08-18T03:03:36.441Z,21.24
2022-08-18T03:05:40.933Z,21.08
2022-08-18T03:07:44.618Z,21.28
2022-08-18T03:09:48.163Z,21.20
2022-08-18T03:11:51.953Z,21.05
2022-08-18T03:13:56.371Z,21.17
2022-08-18T03:15:59.852Z,21.20
2022-08-18T03:18:03.238Z,21.16
2022-08-18T03:20:08.780Z,21.13
2022-08-18T03:22:27.309Z,21.05
2022-08-18T03:24:33.717Z,20.91
2022-08-18T03:26:41.646Z,20.94
2022-08-18T03:28:48.308Z,20.75
2022-08-18T03:30:51.841Z,20.74
2022-08-18T03:32:55.244Z,20.79
2022-08-18T03:34:59.613Z,20.84
2022-08-18T03:37:04.611Z,20.72
2022-08-18T03:39:12.269Z,20.85
2022-08-18T03:41:43.725Z,20.81
2022-08-18T03:43:51.066Z,20.65
2022-08-18T03:45:55.512Z,20.55
2022-08-18T03:48:00.616Z,20.53
2022-08-18T03:50:04.077Z,20.51
2022-08-18T03:52:13.412Z,20.50
2022-08-18T03:54:18.363Z,20.53
2022-08-18T03:56:23.918Z,20.43
2022-08-18T03:58:27.535Z,20.52
2022-08-18T04:00:31.920Z,20.58
2022-08-18T04:02:35.419Z,20.63
2022-08-18T04:04:42.981Z,20.74
2022-08-18T04:06:51.157Z,20.56
2022-08-18T04:08:57.230Z,20.70
2022-08-18T04:11:00.721Z,20.64
2022-08-18T04:13:06.190Z,20.66
2022-08-18T04:15:12.447Z,20.47
2022-08-18T04:17:25.014Z,20.53
2022-08-18T04:19:28.824Z,20.51
2022-08-18T04:21:33.581Z,20.52
2022-08-18T04:23:43.688Z,20.48
2022-08-18T04:25:57.486Z,20.41
2022-08-18T04:28:03.338Z,20.45
2022-08-18T04:30:08.478Z,20.42
2022-08-18T04:32:11.976Z,20.46
2022-08-18T04:34:17.342Z,20.53
2022-08-18T04:36:21.044Z,20.61
2022-08-18T04:38:24.613Z,20.60
2022-08-18T04:40:28.097Z,20.62
2022-08-18T04:42:32.984Z,20.38
2022-08-18T04:44:37.769Z,20.37
2022-08-18T04:46:43.482Z,20.43
2022-08-18T04:48:47.725Z,20.47
2022-08-18T04:50:51.122Z,20.47
2022-08-18T04:53:12.208Z,20.45
2022-08-18T04:55:15.562Z,20.53
2022-08-18T04:57:20.985Z,20.53
2022-08-18T04:59:25.968Z,20.55
2022-08-18T05:01:33.188Z,20.62
2022-08-18T05:03:38.495Z,20.57
2022-08-18T05:05:53.782Z,20.54
2022-08-18T05:07:58.009Z,20.59
2022-08-18T05:10:01.717Z,20.70
2022-08-18T05:12:07.213Z,20.57
2022-08-18T05:14:10.810Z,20.38
2022-08-18T05:16:27.875Z,20.48
2022-08-18T05:18:32.782Z,20.57
2022-08-18T05:20:40.633Z,20.57
2022-08-18T05:22:45.638Z,20.67
2022-08-18T05:24:49.272Z,20.59
2022-08-18T05:26:53.459Z,20.36
2022-08-18T05:29:00.185Z,20.32
2022-08-18T05:31:23.805Z,20.40
2022-08-18T05:33:27.208Z,20.51
2022-08-18T05:35:37.577Z,20.51
2022-08-18T05:37:54.340Z,20.46
2022-08-18T05:40:05.202Z,20.51
2022-08-18T05:42:15.682Z,20.48
2022-08-18T05:44:22.999Z,20.55
2022-08-18T05:46:47.783Z,20.54
2022-08-18T05:48:51.556Z,20.22
2022-08-18T05:50:56.391Z,20.56
2022-08-18T05:53:05.455Z,20.66
2022-08-18T05:55:39.340Z,20.56
2022-08-18T05:57:51.561Z,20.46
2022-08-18T05:59:56.113Z,20.22
2022-08-18T06:02:10.154Z,20.26
2022-08-18T06:04:27.847Z,20.22
2022-08-18T06:06:33.968Z,20.11
2022-08-18T06:08:41.641Z,20.30
2022-08-18T06:10:48.975Z,20.64
2022-08-18T06:12:55.387Z,20.53
2022-08-18T06:15:05.921Z,20.56
2022-08-18T06:17:23.558Z,20.62
2022-08-18T06:19:43.263Z,20.57
2022-08-18T06:21:57.145Z,20.57
2022-08-18T06:24:09.178Z,20.52
2022-08-18T06:26:18.410Z,20.67
2022-08-18T06:28:22.070Z,20.75
2022-08-18T06:30:37.482Z,20.69
2022-08-18T06:33:10.551Z,20.87
2022-08-18T06:35:20.541Z,20.81
2022-08-18T06:37:32.179Z,20.60
2022-08-18T06:39:41.774Z,20.63
2022-08-18T06:41:49.046Z,20.66
2022-08-18T06:44:01.509Z,20.78
2022-08-18T06:46:10.010Z,20.85
2022-08-18T06:48:26.212Z,20.97
2022-08-18T06:50:35.178Z,20.95
2022-08-18T06:52:41.022Z,20.97
2022-08-18T06:54:49.402Z,20.77
2022-08-18T06:56:57.596Z,20.77
2022-08-18T06:59:24.103Z,20.58
2022-08-18T07:01:27.587Z,20.54
2022-08-18T07:03:46.898Z,20.52
2022-08-18T07:06:02.124Z,20.55
2022-08-18T07:08:15.676Z,20.64
2022-08-18T07:10:35.136Z,20.71
2022-08-18T07:12:38.566Z,20.80
2022-08-18T07:14:47.999Z,20.79
2022-08-18T07:17:00.020Z,20.82
2022-08-18T07:19:10.042Z,20.76
2022-08-18T07:21:26.471Z,20.80
2022-08-18T07:23:34.967Z,20.86
2022-08-18T07:25:42.278Z,20.82
2022-08-18T07:27:49.698Z,20.86
2022-08-18T07:30:06.476Z,20.78
2022-08-18T07:32:21.296Z,20.82
2022-08-18T07:34:36.682Z,20.81
2022-08-18T07:36:47.609Z,20.79
2022-08-18T07:38:56.999Z,20.81
2022-08-18T07:41:07.737Z,20.85
2022-08-18T07:43:18.914Z,20.80
2022-08-18T07:45:26.608Z,20.76
2022-08-18T07:47:39.519Z,20.76
2022-08-18T07:50:13.582Z,20.79
2022-08-18T07:52:36.534Z,20.79
2022-08-18T07:54:50.534Z,20.73
2022-08-18T07:57:04.095Z,20.78
2022-08-18T07:59:16.997Z,20.79
2022-08-18T08:01:27.735Z,20.80
2022-08-18T08:03:42.260Z,20.79
2022-08-18T08:05:55.785Z,20.61
2022-08-18T08:08:06.189Z,20.79
2022-08-18T08:10:26.351Z,20.83
2022-08-18T08:12:38.469Z,20.95
2022-08-18T08:14:44.472Z,21.04
2022-08-18T08:16:51.232Z,21.07
2022-08-18T08:19:11.494Z,21.01
2022-08-18T08:21:19.835Z,21.04
2022-08-18T08:23:30.301Z,20.92
2022-08-18T08:25:47.362Z,21.07
2022-08-18T08:28:07.579Z,21.20
2022-08-18T08:30:15.083Z,21.20
2022-08-18T08:32:29.890Z,21.09
2022-08-18T08:34:40.725Z,21.04
2022-08-18T08:36:48.293Z,21.07
2022-08-18T08:38:57.746Z,21.21
2022-08-18T08:41:05.630Z,21.21
2022-08-18T08:43:14.157Z,21.06
2022-08-18T08:45:22.680Z,21.02
2022-08-18T08:47:32.396Z,21.05
2022-08-18T08:49:40.812Z,21.16
2022-08-18T08:51:50.532Z,21.12
2022-08-18T08:54:00.344Z,21.23
2022-08-18T08:56:09.020Z,21.31
2022-08-18T08:58:22.394Z,21.41
2022-08-18T09:00:29.406Z,21.38
2022-08-18T09:02:50.045Z,21.48
2022-08-18T09:05:08.015Z,21.29
2022-08-18T09:07:29.305Z,21.37
2022-08-18T09:10:08.812Z,21.36
2022-08-18T09:12:27.974Z,21.48
2022-08-18T09:14:53.935Z,21.44
2022-08-18T09:17:17.301Z,21.57
2022-08-18T09:19:40.622Z,21.71
2022-08-18T09:21:51.154Z,21.86
2022-08-18T09:24:07.945Z,21.97
2022-08-18T09:26:27.797Z,22.14
2022-08-18T09:28:57.118Z,22.21
2022-08-18T09:31:19.965Z,22.32
2022-08-18T09:33:35.248Z,22.43
2022-08-18T09:36:01.291Z,22.41
2022-08-18T09:38:43.515Z,22.49
2022-08-18T09:41:11.359Z,22.44
2022-08-18T09:43:20.178Z,22.50
2022-08-18T09:48:29.254Z,22.29
2022-08-18T09:51:18.783Z,22.47
2022-08-18T09:53:54.770Z,22.52
2022-08-18T09:58:54.467Z,22.47
2022-08-18T10:01:32.135Z,22.47
2022-08-18T10:03:35.911Z,22.54
2022-08-18T10:05:39.109Z,22.56
2022-08-18T10:07:44.262Z,22.58
2022-08-18T10:10:00.770Z,22.61
2022-08-18T10:12:34.044Z,22.75
2022-08-18T10:15:10.834Z,22.70
2022-08-18T10:17:27.916Z,22.94
2022-08-18T10:19:49.681Z,23.14
2022-08-18T10:22:07.734Z,23.20
2022-08-18T10:24:35.826Z,23.22
2022-08-18T10:27:09.711Z,23.50
2022-08-18T10:29:54.734Z,23.45
2022-08-18T10:32:39.762Z,23.17
2022-08-18T10:34:52.102Z,23.35
2022-08-18T10:36:58.879Z,23.38
2022-08-18T10:39:06.864Z,23.46
2022-08-18T10:41:19.063Z,23.45
2022-08-18T10:43:55.973Z,23.34
2022-08-18T10:48:24.484Z,23.52
2022-08-18T10:50:35.236Z,23.63
2022-08-18T10:55:50.594Z,23.68
2022-08-18T10:58:06.070Z,23.68
2022-08-18T11:00:13.760Z,24.16
2022-08-18T11:02:40.350Z,24.26
2022-08-18T11:04:47.425Z,24.27
2022-08-18T11:07:08.185Z,24.15
2022-08-18T11:09:12.784Z,23.94
2022-08-18T11:11:37.045Z,24.14
2022-08-18T11:13:57.933Z,24.30
2022-08-18T11:16:13.710Z,24.09
2022-08-18T11:18:36.250Z,24.23
2022-08-18T11:20:47.437Z,23.99
2022-08-18T11:22:54.287Z,23.98
2022-08-18T11:24:59.179Z,24.15
2022-08-18T11:27:15.156Z,24.23
2022-08-18T11:31:59.432Z,24.42
2022-08-18T11:34:07.209Z,24.44
2022-08-18T11:36:10.792Z,24.42
2022-08-18T11:38:21.110Z,24.52
2022-08-18T11:43:02.500Z,24.83
2022-08-18T11:45:15.089Z,24.83
2022-08-18T11:47:27.421Z,24.86
2022-08-18T11:49:34.418Z,24.90
2022-08-18T11:51:41.527Z,24.75
2022-08-18T11:53:58.617Z,24.79
2022-08-18T11:56:13.268Z,24.71
2022-08-18T11:58:39.133Z,24.67
2022-08-18T12:01:02.988Z,24.53
2022-08-18T12:03:09.453Z,24.42
2022-08-18T12:05:14.442Z,24.29
2022-08-18T12:07:27.715Z,24.36
2022-08-18T12:10:15.949Z,24.52
2022-08-18T12:12:06.141Z,24.65
2022-08-18T12:14:29.738Z,24.75
2022-08-18T12:16:39.674Z,24.84
2022-08-18T12:18:43.181Z,24.98
2022-08-18T12:20:51.355Z,25.02
2022-08-18T12:22:57.508Z,24.82
2022-08-18T12:25:01.043Z,24.63
2022-08-18T12:27:20.874Z,24.77
2022-08-18T12:29:32.609Z,24.66
2022-08-18T12:31:42.660Z,24.80
2022-08-18T12:34:00.932Z,24.70
2022-08-18T12:36:07.413Z,24.42
2022-08-18T12:38:13.157Z,24.38
2022-08-18T12:40:17.982Z,24.26
2022-08-18T12:42:22.833Z,24.44
2022-08-18T12:44:27.297Z,24.75
2022-08-18T12:46:31.881Z,25.20
2022-08-18T12:48:38.069Z,25.27
2022-08-18T12:53:08.408Z,25.55
2022-08-18T12:55:22.162Z,25.46
2022-08-18T12:57:33.394Z,25.53
2022-08-18T12:59:52.729Z,25.73
2022-08-18T13:01:58.462Z,25.80
2022-08-18T13:04:13.149Z,25.96
2022-08-18T13:06:17.417Z,26.33
2022-08-18T13:08:30.108Z,26.59
2022-08-18T13:10:42.893Z,26.58
2022-08-18T13:12:49.593Z,26.37
2022-08-18T13:14:54.777Z,26.55
2022-08-18T13:16:58.215Z,26.88
2022-08-18T13:19:02.027Z,27.11
2022-08-18T13:21:11.198Z,27.37
2022-08-18T13:23:14.578Z,27.59
2022-08-18T13:25:32.041Z,27.80
2022-08-18T13:27:38.262Z,27.95
2022-08-18T13:29:47.186Z,27.98
2022-08-18T13:31:58.100Z,28.00
2022-08-18T13:34:03.779Z,27.66
2022-08-18T13:36:08.575Z,27.39
2022-08-18T13:38:18.937Z,27.25
2022-08-18T13:40:29.477Z,27.03
2022-08-18T13:42:50.653Z,27.01
2022-08-18T13:45:24.878Z,27.10
2022-08-18T13:47:38.262Z,27.15
2022-08-18T13:49:41.887Z,27.21
2022-08-18T13:52:03.357Z,26.48
2022-08-18T13:54:29.634Z,26.61
2022-08-18T13:56:34.606Z,26.68
2022-08-18T13:58:39.054Z,26.87
2022-08-18T14:01:22.634Z,26.55
2022-08-18T14:03:31.152Z,26.40
2022-08-18T14:05:51.910Z,26.37
2022-08-18T14:07:56.243Z,26.45
2022-08-18T14:10:03.643Z,26.47
2022-08-18T14:12:23.273Z,26.13
2022-08-18T14:14:27.940Z,26.38
2022-08-18T14:16:33.305Z,26.45
2022-08-18T14:18:36.867Z,26.49
2022-08-18T14:20:59.927Z,26.45
2022-08-18T14:23:27.899Z,26.53
2022-08-18T14:25:54.113Z,26.88
2022-08-18T14:27:59.943Z,26.98
2022-08-18T14:30:10.532Z,27.17
2022-08-18T14:32:18.170Z,27.43
2022-08-18T14:34:28.535Z,27.59
2022-08-18T14:36:32.168Z,27.72
2022-08-18T14:38:38.203Z,27.65
2022-08-18T14:40:43.400Z,27.75
2022-08-18T14:42:55.143Z,27.68
2022-08-18T14:45:17.554Z,27.69
2022-08-18T14:47:29.934Z,27.71
2022-08-18T14:49:35.703Z,27.77
2022-08-18T14:51:46.524Z,27.67
2022-08-18T14:53:51.355Z,27.70
2022-08-18T14:55:57.465Z,27.61
2022-08-18T14:58:02.857Z,27.62
2022-08-18T15:00:12.751Z,27.84
2022-08-18T15:02:16.207Z,28.13
2022-08-18T15:04:19.891Z,28.11
2022-08-18T15:06:27.085Z,28.23
2022-08-18T15:08:31.114Z,28.38
2022-08-18T15:10:35.316Z,28.43
2022-08-18T15:12:39.828Z,28.20
2022-08-18T15:14:43.256Z,27.97
2022-08-18T15:16:49.216Z,27.90
2022-08-18T15:18:53.137Z,28.01
2022-08-18T15:21:19.635Z,28.03
2022-08-18T15:24:19.085Z,28.01
2022-08-18T15:26:27.414Z,27.99
2022-08-18T15:28:33.351Z,28.14
2022-08-18T15:32:49.740Z,27.96
2022-08-18T15:34:53.481Z,28.08
2022-08-18T15:36:57.636Z,27.97
2022-08-18T15:39:12.907Z,27.75
2022-08-18T15:41:32.976Z,27.78
2022-08-18T15:43:46.041Z,27.82
2022-08-18T15:45:58.106Z,27.84
2022-08-18T15:48:04.182Z,27.86
2022-08-18T15:50:25.392Z,27.95
2022-08-18T15:52:29.824Z,27.99
2022-08-18T15:54:33.230Z,28.01
2022-08-18T15:56:37.416Z,28.16
2022-08-18T15:58:47.683Z,28.23
2022-08-18T16:00:53.095Z,28.43
2022-08-18T16:02:59.964Z,28.61
2022-08-18T16:05:09.189Z,28.66
2022-08-18T16:07:25.078Z,28.79
2022-08-18T16:09:36.715Z,28.91
2022-08-18T16:11:41.102Z,28.82
2022-08-18T16:13:44.557Z,28.66
2022-08-18T16:15:49.979Z,28.51
2022-08-18T16:17:56.221Z,28.25
2022-08-18T16:20:00.035Z,28.01
2022-08-18T16:22:06.351Z,28.05
2022-08-18T16:24:10.373Z,28.17
2022-08-18T16:28:34.796Z,28.18
2022-08-18T16:30:38.683Z,28.03
2022-08-18T16:32:42.406Z,27.96
2022-08-18T16:34:45.782Z,27.80
2022-08-18T16:36:49.290Z,27.68
2022-08-18T16:38:54.494Z,27.61
2022-08-18T16:41:06.910Z,27.47
2022-08-18T16:43:11.626Z,27.36
2022-08-18T16:45:15.572Z,27.25
2022-08-18T16:47:19.024Z,27.18
2022-08-18T16:49:22.674Z,27.12
2022-08-18T16:51:28.885Z,27.06
2022-08-18T16:53:40.387Z,27.05
2022-08-18T16:55:45.861Z,26.93
2022-08-18T16:58:06.943Z,26.87
2022-08-18T17:00:36.244Z,26.85
2022-08-18T17:02:57.323Z,26.82
2022-08-18T17:05:02.647Z,26.66
2022-08-18T17:07:07.637Z,26.63
2022-08-18T17:10:12.588Z,26.59
2022-08-18T17:12:16.042Z,26.58
2022-08-18T17:14:20.028Z,26.61
2022-08-18T17:16:25.770Z,26.65
2022-08-18T17:18:30.350Z,26.60
2022-08-18T17:20:36.055Z,26.51
2022-08-18T17:22:39.518Z,26.41
2022-08-18T17:24:46.355Z,26.44
2022-08-18T17:27:02.415Z,26.36
2022-08-18T17:29:20.985Z,26.25
2022-08-18T17:31:25.442Z,26.32
2022-08-18T17:33:34.910Z,26.20
2022-08-18T17:35:41.252Z,26.25
2022-08-18T17:37:49.401Z,26.25
2022-08-18T17:40:00.406Z,26.25
2022-08-18T17:42:23.244Z,26.20
2022-08-18T17:44:31.188Z,26.23
2022-08-18T17:46:41.249Z,26.27
2022-08-18T17:48:49.257Z,26.30
2022-08-18T17:51:14.917Z,26.34
2022-08-18T17:53:18.472Z,26.29
2022-08-18T17:55:26.276Z,26.26
2022-08-18T17:57:34.200Z,26.19
2022-08-18T17:59:51.783Z,26.17
2022-08-18T18:02:18.462Z,26.15
2022-08-18T18:04:32.477Z,26.09
2022-08-18T18:06:40.881Z,26.09
2022-08-18T18:08:54.621Z,26.07
2022-08-18T18:11:11.600Z,26.05
2022-08-18T18:13:27.036Z,26.04
2022-08-18T18:15:33.506Z,26.00
2022-08-18T18:17:39.019Z,25.99
2022-08-18T18:19:43.067Z,25.99
2022-08-18T18:22:02.275Z,25.97
2022-08-18T18:24:16.084Z,25.96
2022-08-18T18:26:28.329Z,25.95
2022-08-18T18:28:36.131Z,25.92
2022-08-18T18:30:39.512Z,25.90
2022-08-18T18:32:59.165Z,25.89
2022-08-18T18:35:11.706Z,25.91
2022-08-18T18:37:27.488Z,25.86
2022-08-18T18:39:33.129Z,25.62
2022-08-18T18:41:40.115Z,25.55
2022-08-18T18:43:48.319Z,25.33
2022-08-18T18:46:23.313Z,25.24
2022-08-18T18:48:51.140Z,25.19
2022-08-18T18:50:58.250Z,25.17
2022-08-18T18:53:18.093Z,25.24
2022-08-18T18:55:26.857Z,25.19
2022-08-18T18:57:39.992Z,25.19
2022-08-18T18:59:59.109Z,25.17
2022-08-18T19:02:33.011Z,25.08
2022-08-18T19:04:40.284Z,25.06
2022-08-18T19:06:52.021Z,24.99
2022-08-18T19:09:03.761Z,24.90
2022-08-18T19:11:15.260Z,24.84
2022-08-18T19:13:32.384Z,24.84
2022-08-18T19:15:40.218Z,24.93
2022-08-18T19:17:47.770Z,24.99
2022-08-18T19:19:56.121Z,25.06
2022-08-18T19:22:09.312Z,25.08
2022-08-18T19:24:18.290Z,25.09
2022-08-18T19:26:28.312Z,25.11
2022-08-18T19:29:13.416Z,25.11
2022-08-18T19:31:06.548Z,25.04
2022-08-18T19:33:15.810Z,25.01
2022-08-18T19:35:38.293Z,25.00
2022-08-18T19:37:55.472Z,24.93
2022-08-18T19:40:05.328Z,25.07
2022-08-18T19:42:15.877Z,25.15
2022-08-18T19:44:35.226Z,25.31
2022-08-18T19:46:45.283Z,25.22
2022-08-18T19:48:54.779Z,25.53
2022-08-18T19:51:05.234Z,25.62
2022-08-18T19:53:26.559Z,25.64
2022-08-18T19:55:44.553Z,25.71
2022-08-18T19:58:03.165Z,25.56
2022-08-18T20:00:25.322Z,25.40
2022-08-18T20:02:44.240Z,25.28
2022-08-18T20:05:06.404Z,25.04
2022-08-18T20:07:29.315Z,24.90
2022-08-18T20:09:49.725Z,24.90
2022-08-18T20:12:14.210Z,24.92
2022-08-18T20:14:19.974Z,24.93
2022-08-18T20:16:42.599Z,25.03
2022-08-18T20:18:51.366Z,25.05
2022-08-18T20:21:39.863Z,25.05
2022-08-18T20:24:02.302Z,25.00
2022-08-18T20:26:06.088Z,25.00
2022-08-18T20:28:36.316Z,25.02
2022-08-18T20:30:54.743Z,24.83
2022-08-18T20:33:19.055Z,24.83
2022-08-18T20:35:27.039Z,24.94
2022-08-18T20:37:31.909Z,25.04
2022-08-18T20:39:46.495Z,24.93
2022-08-18T20:41:52.095Z,24.78
2022-08-18T20:44:00.308Z,24.75
2022-08-18T20:46:32.504Z,24.82
2022-08-18T20:49:05.818Z,24.82
2022-08-18T20:51:12.609Z,24.78
2022-08-18T20:53:36.056Z,24.88
2022-08-18T20:55:53.004Z,24.88
2022-08-18T20:58:08.095Z,24.96
2022-08-18T21:00:23.945Z,24.91
2022-08-18T21:02:38.344Z,24.92
2022-08-18T21:04:49.454Z,24.89
2022-08-18T21:06:54.996Z,24.80
2022-08-18T21:08:59.449Z,24.66
2022-08-18T21:11:06.469Z,24.61
2022-08-18T21:13:09.883Z,24.62
2022-08-18T21:15:13.536Z,24.50
2022-08-18T21:17:17.635Z,24.40
2022-08-18T21:19:23.568Z,24.39
2022-08-18T21:21:32.686Z,24.34
2022-08-18T21:23:41.315Z,24.28
2022-08-18T21:25:53.383Z,24.26
2022-08-18T21:27:57.426Z,24.11
2022-08-18T21:30:03.851Z,24.02
2022-08-18T21:32:11.986Z,23.97
2022-08-18T21:34:29.059Z,23.92
2022-08-18T21:36:33.424Z,23.87
2022-08-18T21:38:38.217Z,23.91
2022-08-18T21:40:45.404Z,23.89
2022-08-18T21:42:48.939Z,23.89
2022-08-18T21:44:54.292Z,23.85
2022-08-18T21:47:05.532Z,23.79
2022-08-18T21:49:10.488Z,23.74
2022-08-18T21:51:21.372Z,23.77
2022-08-18T21:53:28.470Z,23.70
2022-08-18T21:55:40.049Z,23.65
2022-08-18T21:57:59.553Z,23.66
2022-08-18T22:00:19.904Z,23.60
2022-08-18T22:02:23.888Z,23.58
2022-08-18T22:04:32.083Z,23.53
2022-08-18T22:06:41.304Z,23.52
2022-08-18T22:08:50.093Z,23.53
2022-08-18T22:12:00.100Z,23.59
2022-08-18T22:14:16.717Z,23.55
2022-08-18T22:16:30.732Z,23.56
2022-08-18T22:18:36.808Z,23.57
2022-08-18T22:20:47.090Z,23.55
2022-08-18T22:23:07.999Z,23.58
2022-08-18T22:25:13.099Z,23.50
2022-08-18T22:27:22.172Z,23.49
2022-08-18T22:29:32.651Z,23.46
2022-08-18T22:31:38.403Z,23.40
2022-08-18T22:33:41.978Z,23.36
2022-08-18T22:35:53.486Z,23.38
2022-08-18T22:37:56.890Z,23.42
2022-08-18T22:40:04.324Z,23.44
2022-08-18T22:42:09.574Z,23.34
2022-08-18T22:44:14.352Z,23.30
2022-08-18T22:46:24.164Z,23.26
2022-08-18T22:48:28.358Z,23.16
2022-08-18T22:50:32.011Z,23.04
2022-08-18T22:52:38.962Z,23.06
2022-08-18T22:54:42.392Z,23.16
2022-08-18T22:56:53.974Z,23.10
2022-08-18T22:59:00.267Z,22.98
2022-08-18T23:01:11.941Z,22.90
2022-08-18T23:03:15.781Z,22.91
2022-08-18T23:05:19.392Z,22.92
2022-08-18T23:07:23.651Z,22.93
2022-08-18T23:09:30.084Z,22.84
2022-08-18T23:11:33.472Z,22.91
2022-08-18T23:13:37.458Z,22.93
2022-08-18T23:15:46.660Z,22.88
2022-08-18T23:17:52.014Z,22.94
2022-08-18T23:19:55.380Z,22.92
2022-08-18T23:21:59.214Z,22.89
2022-08-18T23:24:02.641Z,22.89
2022-08-18T23:26:06.299Z,22.92
2022-08-18T23:28:10.459Z,22.82
2022-08-18T23:30:14.085Z,22.76
2022-08-18T23:32:18.321Z,22.78
2022-08-18T23:34:24.679Z,22.81
2022-08-18T23:36:28.204Z,22.89
2022-08-18T23:38:31.956Z,22.77
2022-08-18T23:40:36.475Z,22.77
2022-08-18T23:42:40.153Z,22.78
2022-08-18T23:44:43.544Z,22.84
2022-08-18T23:46:47.147Z,22.83
2022-08-18T23:48:52.636Z,22.73
2022-08-18T23:51:03.057Z,22.61
2022-08-18T23:53:08.053Z,22.60
2022-08-18T23:55:14.203Z,22.57
2022-08-18T23:57:17.552Z,22.49
2022-08-18T23:59:22.792Z,22.56
